sensor_id;sensor_type;location;lat;lon;timestamp;P1;durP1;ratioP1;P2;durP2;ratioP2
54745;SDS011;40640;48.130;11.356;2023-07-31T00:01:23;7.93;;;2.38;;
54745;SDS011;40640;48.130;11.356;2023-07-31T00:05:26;3.97;;;2.17;;
54745;SDS011;40640;48.130;11.356;2023-07-31T00:09:30;4.80;;;2.22;;
54745;SDS011;40640;48.130;11.356;2023-07-31T00:13:33;7.10;;;2.65;;
54745;SDS011;40640;48.130;11.356;2023-07-31T00:17:36;5.63;;;2.00;;
54745;SDS011;40640;48.130;11.356;2023-07-31T00:21:39;3.50;;;2.00;;
54745;SDS011;40640;48.130;11.356;2023-07-31T00:25:43;3.60;;;2.05;;
54745;SDS011;40640;48.130;11.356;2023-07-31T00:29:46;3.75;;;1.90;;
54745;SDS011;40640;48.130;11.356;2023-07-31T00:33:49;6.28;;;2.22;;
54745;SDS011;40640;48.130;11.356;2023-07-31T00:37:52;8.00;;;2.15;;
54745;SDS011;40640;48.130;11.356;2023-07-31T00:41:56;7.57;;;2.60;;
54745;SDS011;40640;48.130;11.356;2023-07-31T00:45:59;8.57;;;2.10;;
54745;SDS011;40640;48.130;11.356;2023-07-31T00:50:02;4.05;;;2.13;;
54745;SDS011;40640;48.130;11.356;2023-07-31T00:54:06;6.57;;;2.10;;
54745;SDS011;40640;48.130;11.356;2023-07-31T00:58:10;3.65;;;2.05;;
54745;SDS011;40640;48.130;11.356;2023-07-31T01:02:13;4.25;;;2.03;;
54745;SDS011;40640;48.130;11.356;2023-07-31T01:06:17;3.63;;;2.17;;
54745;SDS011;40640;48.130;11.356;2023-07-31T01:10:30;8.55;;;1.95;;
54745;SDS011;40640;48.130;11.356;2023-07-31T01:14:39;9.30;;;2.72;;
54745;SDS011;40640;48.130;11.356;2023-07-31T01:18:42;5.32;;;2.05;;
54745;SDS011;40640;48.130;11.356;2023-07-31T01:22:48;6.57;;;2.20;;
54745;SDS011;40640;48.130;11.356;2023-07-31T01:27:04;3.60;;;1.92;;
54745;SDS011;40640;48.130;11.356;2023-07-31T01:31:09;5.32;;;2.20;;
54745;SDS011;40640;48.130;11.356;2023-07-31T01:35:15;5.25;;;2.33;;
54745;SDS011;40640;48.130;11.356;2023-07-31T01:39:19;7.30;;;2.33;;
54745;SDS011;40640;48.130;11.356;2023-07-31T01:43:24;5.47;;;2.33;;
54745;SDS011;40640;48.130;11.356;2023-07-31T01:47:27;5.85;;;1.90;;
54745;SDS011;40640;48.130;11.356;2023-07-31T01:51:30;3.75;;;2.05;;
54745;SDS011;40640;48.130;11.356;2023-07-31T01:55:35;3.40;;;2.05;;
54745;SDS011;40640;48.130;11.356;2023-07-31T01:59:39;5.13;;;2.15;;
54745;SDS011;40640;48.130;11.356;2023-07-31T02:03:42;2.67;;;1.80;;
54745;SDS011;40640;48.130;11.356;2023-07-31T02:07:45;5.45;;;1.92;;
54745;SDS011;40640;48.130;11.356;2023-07-31T02:11:48;5.43;;;2.13;;
54745;SDS011;40640;48.130;11.356;2023-07-31T02:15:53;4.07;;;2.28;;
54745;SDS011;40640;48.130;11.356;2023-07-31T02:19:56;7.43;;;2.25;;
54745;SDS011;40640;48.130;11.356;2023-07-31T02:23:59;7.60;;;2.05;;
54745;SDS011;40640;48.130;11.356;2023-07-31T02:28:02;3.55;;;1.88;;
54745;SDS011;40640;48.130;11.356;2023-07-31T02:32:06;4.50;;;1.98;;
54745;SDS011;40640;48.130;11.356;2023-07-31T02:36:09;7.15;;;2.20;;
54745;SDS011;40640;48.130;11.356;2023-07-31T02:40:12;6.40;;;2.45;;
54745;SDS011;40640;48.130;11.356;2023-07-31T02:44:15;5.68;;;2.10;;
54745;SDS011;40640;48.130;11.356;2023-07-31T02:48:20;11.95;;;2.33;;
54745;SDS011;40640;48.130;11.356;2023-07-31T02:52:23;6.15;;;2.33;;
54745;SDS011;40640;48.130;11.356;2023-07-31T02:56:26;6.05;;;2.17;;
54745;SDS011;40640;48.130;11.356;2023-07-31T03:00:29;5.63;;;2.47;;
54745;SDS011;40640;48.130;11.356;2023-07-31T03:04:33;4.78;;;2.42;;
54745;SDS011;40640;48.130;11.356;2023-07-31T03:08:36;3.47;;;2.40;;
54745;SDS011;40640;48.130;11.356;2023-07-31T03:12:39;3.33;;;2.15;;
54745;SDS011;40640;48.130;11.356;2023-07-31T03:16:42;8.30;;;2.70;;
54745;SDS011;40640;48.130;11.356;2023-07-31T03:20:47;3.58;;;2.17;;
54745;SDS011;40640;48.130;11.356;2023-07-31T03:24:50;8.98;;;2.30;;
54745;SDS011;40640;48.130;11.356;2023-07-31T03:28:53;6.63;;;2.42;;
54745;SDS011;40640;48.130;11.356;2023-07-31T03:32:56;4.97;;;2.60;;
54745;SDS011;40640;48.130;11.356;2023-07-31T03:37:01;5.72;;;2.40;;
54745;SDS011;40640;48.130;11.356;2023-07-31T03:41:04;3.72;;;2.45;;
54745;SDS011;40640;48.130;11.356;2023-07-31T03:45:08;7.13;;;2.75;;
54745;SDS011;40640;48.130;11.356;2023-07-31T03:49:11;10.00;;;2.67;;
54745;SDS011;40640;48.130;11.356;2023-07-31T03:53:16;10.52;;;2.53;;
54745;SDS011;40640;48.130;11.356;2023-07-31T03:57:19;7.25;;;2.53;;
54745;SDS011;40640;48.130;11.356;2023-07-31T04:01:21;7.70;;;2.55;;
54745;SDS011;40640;48.130;11.356;2023-07-31T04:05:24;6.35;;;2.33;;
54745;SDS011;40640;48.130;11.356;2023-07-31T04:09:29;5.25;;;2.65;;
54745;SDS011;40640;48.130;11.356;2023-07-31T04:13:32;5.07;;;2.50;;
54745;SDS011;40640;48.130;11.356;2023-07-31T04:17:35;3.05;;;1.92;;
54745;SDS011;40640;48.130;11.356;2023-07-31T04:21:38;5.10;;;2.30;;
54745;SDS011;40640;48.130;11.356;2023-07-31T04:25:42;7.53;;;2.50;;
54745;SDS011;40640;48.130;11.356;2023-07-31T04:29:45;4.15;;;2.45;;
54745;SDS011;40640;48.130;11.356;2023-07-31T04:33:49;5.80;;;2.63;;
54745;SDS011;40640;48.130;11.356;2023-07-31T04:37:51;9.00;;;2.88;;
54745;SDS011;40640;48.130;11.356;2023-07-31T04:41:56;5.70;;;2.63;;
54745;SDS011;40640;48.130;11.356;2023-07-31T04:45:58;7.97;;;2.55;;
54745;SDS011;40640;48.130;11.356;2023-07-31T04:50:01;9.45;;;2.35;;
54745;SDS011;40640;48.130;11.356;2023-07-31T04:54:04;6.43;;;2.47;;
54745;SDS011;40640;48.130;11.356;2023-07-31T04:58:08;4.35;;;2.40;;
54745;SDS011;40640;48.130;11.356;2023-07-31T05:02:12;6.28;;;2.55;;
54745;SDS011;40640;48.130;11.356;2023-07-31T05:06:15;8.00;;;2.42;;
54745;SDS011;40640;48.130;11.356;2023-07-31T05:10:18;4.65;;;2.70;;
54745;SDS011;40640;48.130;11.356;2023-07-31T05:14:22;4.32;;;2.20;;
54745;SDS011;40640;48.130;11.356;2023-07-31T05:18:25;5.05;;;2.50;;
54745;SDS011;40640;48.130;11.356;2023-07-31T05:22:28;6.03;;;2.30;;
54745;SDS011;40640;48.130;11.356;2023-07-31T05:26:31;9.70;;;2.38;;
54745;SDS011;40640;48.130;11.356;2023-07-31T05:30:35;3.83;;;2.35;;
54745;SDS011;40640;48.130;11.356;2023-07-31T05:34:38;2.85;;;1.95;;
54745;SDS011;40640;48.130;11.356;2023-07-31T05:38:40;7.85;;;2.10;;
54745;SDS011;40640;48.130;11.356;2023-07-31T05:42:45;3.83;;;1.88;;
54745;SDS011;40640;48.130;11.356;2023-07-31T05:46:49;3.63;;;1.90;;
54745;SDS011;40640;48.130;11.356;2023-07-31T05:50:52;4.25;;;2.03;;
54745;SDS011;40640;48.130;11.356;2023-07-31T05:54:55;3.42;;;1.90;;
54745;SDS011;40640;48.130;11.356;2023-07-31T05:58:58;4.72;;;2.42;;
54745;SDS011;40640;48.130;11.356;2023-07-31T06:03:02;2.85;;;1.65;;
54745;SDS011;40640;48.130;11.356;2023-07-31T06:07:05;4.45;;;2.20;;
54745;SDS011;40640;48.130;11.356;2023-07-31T06:11:09;3.90;;;2.20;;
54745;SDS011;40640;48.130;11.356;2023-07-31T06:15:12;7.38;;;1.88;;
54745;SDS011;40640;48.130;11.356;2023-07-31T06:19:16;7.68;;;2.22;;
54745;SDS011;40640;48.130;11.356;2023-07-31T06:23:19;6.65;;;2.10;;
54745;SDS011;40640;48.130;11.356;2023-07-31T06:27:22;4.55;;;2.17;;
54745;SDS011;40640;48.130;11.356;2023-07-31T06:31:25;5.97;;;2.00;;
54745;SDS011;40640;48.130;11.356;2023-07-31T06:35:30;5.18;;;2.17;;
54745;SDS011;40640;48.130;11.356;2023-07-31T06:39:33;3.80;;;2.22;;
54745;SDS011;40640;48.130;11.356;2023-07-31T06:43:35;3.30;;;1.80;;
54745;SDS011;40640;48.130;11.356;2023-07-31T06:47:38;5.78;;;2.10;;
54745;SDS011;40640;48.130;11.356;2023-07-31T06:51:43;7.22;;;2.03;;
54745;SDS011;40640;48.130;11.356;2023-07-31T06:55:46;3.70;;;1.70;;
54745;SDS011;40640;48.130;11.356;2023-07-31T06:59:49;5.53;;;2.17;;
54745;SDS011;40640;48.130;11.356;2023-07-31T07:03:52;5.43;;;2.13;;
54745;SDS011;40640;48.130;11.356;2023-07-31T07:07:57;8.38;;;1.95;;
54745;SDS011;40640;48.130;11.356;2023-07-31T07:11:59;5.97;;;2.10;;
54745;SDS011;40640;48.130;11.356;2023-07-31T07:16:02;3.85;;;2.28;;
54745;SDS011;40640;48.130;11.356;2023-07-31T07:20:06;9.32;;;2.15;;
54745;SDS011;40640;48.130;11.356;2023-07-31T07:24:11;5.63;;;2.17;;
54745;SDS011;40640;48.130;11.356;2023-07-31T07:28:14;7.18;;;2.20;;
54745;SDS011;40640;48.130;11.356;2023-07-31T07:32:17;8.27;;;2.10;;
54745;SDS011;40640;48.130;11.356;2023-07-31T07:36:20;5.35;;;1.90;;
54745;SDS011;40640;48.130;11.356;2023-07-31T07:40:24;4.97;;;1.70;;
54745;SDS011;40640;48.130;11.356;2023-07-31T07:44:27;4.25;;;1.90;;
54745;SDS011;40640;48.130;11.356;2023-07-31T07:48:29;5.47;;;1.92;;
54745;SDS011;40640;48.130;11.356;2023-07-31T07:52:32;5.38;;;1.70;;
54745;SDS011;40640;48.130;11.356;2023-07-31T07:56:36;4.05;;;1.52;;
54745;SDS011;40640;48.130;11.356;2023-07-31T08:00:40;2.50;;;1.70;;
54745;SDS011;40640;48.130;11.356;2023-07-31T08:04:43;5.45;;;1.80;;
54745;SDS011;40640;48.130;11.356;2023-07-31T08:08:46;3.78;;;1.73;;
54745;SDS011;40640;48.130;11.356;2023-07-31T08:12:53;5.85;;;1.70;;
54745;SDS011;40640;48.130;11.356;2023-07-31T08:16:56;2.85;;;1.45;;
54745;SDS011;40640;48.130;11.356;2023-07-31T08:20:58;7.30;;;1.85;;
54745;SDS011;40640;48.130;11.356;2023-07-31T08:25:01;2.28;;;1.40;;
54745;SDS011;40640;48.130;11.356;2023-07-31T08:29:06;4.72;;;1.45;;
54745;SDS011;40640;48.130;11.356;2023-07-31T08:33:09;3.33;;;1.70;;
54745;SDS011;40640;48.130;11.356;2023-07-31T08:37:12;3.28;;;1.60;;
54745;SDS011;40640;48.130;11.356;2023-07-31T08:41:14;4.55;;;1.60;;
54745;SDS011;40640;48.130;11.356;2023-07-31T08:45:20;3.88;;;1.52;;
54745;SDS011;40640;48.130;11.356;2023-07-31T08:49:23;6.32;;;1.73;;
54745;SDS011;40640;48.130;11.356;2023-07-31T08:53:26;5.47;;;1.88;;
54745;SDS011;40640;48.130;11.356;2023-07-31T08:57:29;7.40;;;1.52;;
54745;SDS011;40640;48.130;11.356;2023-07-31T09:01:35;3.33;;;1.58;;
54745;SDS011;40640;48.130;11.356;2023-07-31T09:05:44;3.33;;;1.63;;
54745;SDS011;40640;48.130;11.356;2023-07-31T09:09:48;4.15;;;1.90;;
54745;SDS011;40640;48.130;11.356;2023-07-31T09:13:50;5.10;;;1.95;;
54745;SDS011;40640;48.130;11.356;2023-07-31T09:17:59;3.67;;;1.60;;
54745;SDS011;40640;48.130;11.356;2023-07-31T09:22:03;4.53;;;2.08;;
54745;SDS011;40640;48.130;11.356;2023-07-31T09:26:07;5.43;;;1.83;;
54745;SDS011;40640;48.130;11.356;2023-07-31T09:30:10;8.65;;;1.80;;
54745;SDS011;40640;48.130;11.356;2023-07-31T09:34:14;6.18;;;1.70;;
54745;SDS011;40640;48.130;11.356;2023-07-31T09:38:17;4.75;;;2.00;;
54745;SDS011;40640;48.130;11.356;2023-07-31T09:42:24;4.10;;;2.10;;
54745;SDS011;40640;48.130;11.356;2023-07-31T09:46:28;4.05;;;1.73;;
54745;SDS011;40640;48.130;11.356;2023-07-31T09:50:34;5.60;;;1.75;;
54745;SDS011;40640;48.130;11.356;2023-07-31T09:54:39;5.25;;;1.80;;
54745;SDS011;40640;48.130;11.356;2023-07-31T09:58:42;8.20;;;2.05;;
54745;SDS011;40640;48.130;11.356;2023-07-31T10:02:45;4.55;;;1.70;;
54745;SDS011;40640;48.130;11.356;2023-07-31T10:06:50;5.85;;;2.00;;
54745;SDS011;40640;48.130;11.356;2023-07-31T10:10:57;5.25;;;1.70;;
54745;SDS011;40640;48.130;11.356;2023-07-31T10:15:01;6.32;;;1.98;;
54745;SDS011;40640;48.130;11.356;2023-07-31T10:19:05;5.50;;;2.17;;
54745;SDS011;40640;48.130;11.356;2023-07-31T10:23:10;4.93;;;1.70;;
54745;SDS011;40640;48.130;11.356;2023-07-31T10:27:14;3.28;;;2.10;;
54745;SDS011;40640;48.130;11.356;2023-07-31T10:31:17;6.25;;;1.85;;
54745;SDS011;40640;48.130;11.356;2023-07-31T10:35:21;4.25;;;1.75;;
54745;SDS011;40640;48.130;11.356;2023-07-31T10:39:35;3.72;;;1.63;;
54745;SDS011;40640;48.130;11.356;2023-07-31T10:43:40;3.42;;;1.83;;
54745;SDS011;40640;48.130;11.356;2023-07-31T10:47:44;3.78;;;1.98;;
54745;SDS011;40640;48.130;11.356;2023-07-31T10:51:47;4.00;;;1.80;;
54745;SDS011;40640;48.130;11.356;2023-07-31T10:55:52;8.23;;;1.80;;
54745;SDS011;40640;48.130;11.356;2023-07-31T10:59:57;4.47;;;2.08;;
54745;SDS011;40640;48.130;11.356;2023-07-31T11:04:24;4.38;;;2.10;;
54745;SDS011;40640;48.130;11.356;2023-07-31T11:08:27;4.13;;;2.00;;
54745;SDS011;40640;48.130;11.356;2023-07-31T11:12:33;3.35;;;1.80;;
54745;SDS011;40640;48.130;11.356;2023-07-31T11:16:36;7.22;;;1.85;;
54745;SDS011;40640;48.130;11.356;2023-07-31T11:20:39;4.38;;;2.10;;
54745;SDS011;40640;48.130;11.356;2023-07-31T11:24:42;3.78;;;2.22;;
54745;SDS011;40640;48.130;11.356;2023-07-31T11:28:47;3.75;;;1.65;;
54745;SDS011;40640;48.130;11.356;2023-07-31T11:32:51;4.28;;;2.00;;
54745;SDS011;40640;48.130;11.356;2023-07-31T11:36:54;4.55;;;2.20;;
54745;SDS011;40640;48.130;11.356;2023-07-31T11:40:58;17.27;;;2.05;;
54745;SDS011;40640;48.130;11.356;2023-07-31T11:45:04;2.38;;;1.83;;
54745;SDS011;40640;48.130;11.356;2023-07-31T11:49:07;4.43;;;2.05;;
54745;SDS011;40640;48.130;11.356;2023-07-31T11:53:11;2.63;;;1.80;;
54745;SDS011;40640;48.130;11.356;2023-07-31T11:57:14;3.03;;;2.08;;
54745;SDS011;40640;48.130;11.356;2023-07-31T12:01:19;5.35;;;1.98;;
54745;SDS011;40640;48.130;11.356;2023-07-31T12:05:24;3.22;;;1.80;;
54745;SDS011;40640;48.130;11.356;2023-07-31T12:09:27;5.57;;;2.13;;
54745;SDS011;40640;48.130;11.356;2023-07-31T12:13:30;3.50;;;2.33;;
54745;SDS011;40640;48.130;11.356;2023-07-31T12:17:35;3.50;;;1.90;;
54745;SDS011;40640;48.130;11.356;2023-07-31T12:21:38;3.05;;;2.05;;
54745;SDS011;40640;48.130;11.356;2023-07-31T12:25:41;4.13;;;1.98;;
54745;SDS011;40640;48.130;11.356;2023-07-31T12:29:44;4.03;;;1.98;;
54745;SDS011;40640;48.130;11.356;2023-07-31T12:33:49;3.53;;;2.13;;
54745;SDS011;40640;48.130;11.356;2023-07-31T12:37:53;3.30;;;2.05;;
54745;SDS011;40640;48.130;11.356;2023-07-31T12:41:56;2.30;;;1.77;;
54745;SDS011;40640;48.130;11.356;2023-07-31T12:45:59;6.68;;;1.92;;
54745;SDS011;40640;48.130;11.356;2023-07-31T12:50:04;5.43;;;1.70;;
54745;SDS011;40640;48.130;11.356;2023-07-31T12:54:07;5.90;;;1.92;;
54745;SDS011;40640;48.130;11.356;2023-07-31T12:58:10;3.55;;;1.90;;
54745;SDS011;40640;48.130;11.356;2023-07-31T13:02:13;3.13;;;1.70;;
54745;SDS011;40640;48.130;11.356;2023-07-31T13:06:22;5.45;;;2.00;;
54745;SDS011;40640;48.130;11.356;2023-07-31T13:10:25;3.10;;;1.85;;
54745;SDS011;40640;48.130;11.356;2023-07-31T13:14:30;3.67;;;1.88;;
54745;SDS011;40640;48.130;11.356;2023-07-31T13:18:32;3.10;;;1.90;;
54745;SDS011;40640;48.130;11.356;2023-07-31T13:22:37;3.13;;;1.95;;
54745;SDS011;40640;48.130;11.356;2023-07-31T13:26:40;3.08;;;1.70;;
54745;SDS011;40640;48.130;11.356;2023-07-31T13:30:42;3.92;;;1.88;;
54745;SDS011;40640;48.130;11.356;2023-07-31T13:34:45;2.08;;;1.60;;
54745;SDS011;40640;48.130;11.356;2023-07-31T13:38:50;4.38;;;1.70;;
54745;SDS011;40640;48.130;11.356;2023-07-31T13:42:53;3.95;;;1.58;;
54745;SDS011;40640;48.130;11.356;2023-07-31T13:46:57;3.53;;;1.63;;
54745;SDS011;40640;48.130;11.356;2023-07-31T13:51:00;6.32;;;1.60;;
54745;SDS011;40640;48.130;11.356;2023-07-31T13:55:04;6.57;;;1.90;;
54745;SDS011;40640;48.130;11.356;2023-07-31T13:59:08;3.33;;;1.70;;
54745;SDS011;40640;48.130;11.356;2023-07-31T14:03:11;3.50;;;1.75;;
54745;SDS011;40640;48.130;11.356;2023-07-31T14:07:14;3.53;;;2.05;;
54745;SDS011;40640;48.130;11.356;2023-07-31T14:11:20;6.00;;;2.10;;
54745;SDS011;40640;48.130;11.356;2023-07-31T14:15:23;4.70;;;2.10;;
54745;SDS011;40640;48.130;11.356;2023-07-31T14:19:26;4.25;;;1.70;;
54745;SDS011;40640;48.130;11.356;2023-07-31T14:23:29;4.75;;;1.90;;
54745;SDS011;40640;48.130;11.356;2023-07-31T14:27:33;8.00;;;1.77;;
54745;SDS011;40640;48.130;11.356;2023-07-31T14:31:36;4.65;;;2.00;;
54745;SDS011;40640;48.130;11.356;2023-07-31T14:35:39;4.80;;;2.03;;
54745;SDS011;40640;48.130;11.356;2023-07-31T14:39:42;7.20;;;2.10;;
54745;SDS011;40640;48.130;11.356;2023-07-31T14:43:46;6.88;;;2.05;;
54745;SDS011;40640;48.130;11.356;2023-07-31T14:47:49;5.60;;;2.30;;
54745;SDS011;40640;48.130;11.356;2023-07-31T14:51:52;5.50;;;3.03;;
54745;SDS011;40640;48.130;11.356;2023-07-31T14:55:55;4.63;;;2.10;;
54745;SDS011;40640;48.130;11.356;2023-07-31T14:59:59;4.18;;;2.30;;
54745;SDS011;40640;48.130;11.356;2023-07-31T15:04:02;3.38;;;2.13;;
54745;SDS011;40640;48.130;11.356;2023-07-31T15:08:05;3.80;;;2.40;;
54745;SDS011;40640;48.130;11.356;2023-07-31T15:12:08;4.13;;;3.30;;
54745;SDS011;40640;48.130;11.356;2023-07-31T15:16:13;4.55;;;2.78;;
54745;SDS011;40640;48.130;11.356;2023-07-31T15:20:16;8.05;;;3.45;;
54745;SDS011;40640;48.130;11.356;2023-07-31T15:24:19;4.88;;;3.20;;
54745;SDS011;40640;48.130;11.356;2023-07-31T15:28:22;8.40;;;2.70;;
54745;SDS011;40640;48.130;11.356;2023-07-31T15:32:26;6.85;;;2.65;;
54745;SDS011;40640;48.130;11.356;2023-07-31T15:36:29;6.72;;;3.40;;
54745;SDS011;40640;48.130;11.356;2023-07-31T15:40:32;4.22;;;2.50;;
54745;SDS011;40640;48.130;11.356;2023-07-31T15:44:35;3.28;;;2.05;;
54745;SDS011;40640;48.130;11.356;2023-07-31T15:48:40;4.53;;;2.22;;
54745;SDS011;40640;48.130;11.356;2023-07-31T15:52:43;8.65;;;2.83;;
54745;SDS011;40640;48.130;11.356;2023-07-31T15:56:46;6.90;;;2.50;;
54745;SDS011;40640;48.130;11.356;2023-07-31T16:00:49;6.82;;;2.47;;
54745;SDS011;40640;48.130;11.356;2023-07-31T16:04:54;3.85;;;2.22;;
54745;SDS011;40640;48.130;11.356;2023-07-31T16:08:56;5.03;;;2.40;;
54745;SDS011;40640;48.130;11.356;2023-07-31T16:12:59;6.03;;;2.35;;
54745;SDS011;40640;48.130;11.356;2023-07-31T16:17:02;3.60;;;2.05;;
54745;SDS011;40640;48.130;11.356;2023-07-31T16:21:07;3.47;;;2.08;;
54745;SDS011;40640;48.130;11.356;2023-07-31T16:25:10;6.20;;;2.67;;
54745;SDS011;40640;48.130;11.356;2023-07-31T16:29:13;10.38;;;2.20;;
54745;SDS011;40640;48.130;11.356;2023-07-31T16:33:16;12.55;;;3.90;;
54745;SDS011;40640;48.130;11.356;2023-07-31T16:37:20;8.65;;;2.83;;
54745;SDS011;40640;48.130;11.356;2023-07-31T16:41:23;5.22;;;2.65;;
54745;SDS011;40640;48.130;11.356;2023-07-31T16:45:26;4.25;;;2.35;;
54745;SDS011;40640;48.130;11.356;2023-07-31T16:49:29;9.07;;;2.72;;
54745;SDS011;40640;48.130;11.356;2023-07-31T16:53:33;8.38;;;2.58;;
54745;SDS011;40640;48.130;11.356;2023-07-31T16:57:36;6.80;;;2.30;;
54745;SDS011;40640;48.130;11.356;2023-07-31T17:01:39;8.85;;;2.63;;
54745;SDS011;40640;48.130;11.356;2023-07-31T17:05:43;9.43;;;2.38;;
54745;SDS011;40640;48.130;11.356;2023-07-31T17:09:47;8.73;;;3.10;;
54745;SDS011;40640;48.130;11.356;2023-07-31T17:13:50;6.28;;;2.67;;
54745;SDS011;40640;48.130;11.356;2023-07-31T17:17:53;11.93;;;3.13;;
54745;SDS011;40640;48.130;11.356;2023-07-31T17:21:56;7.28;;;3.65;;
54745;SDS011;40640;48.130;11.356;2023-07-31T17:26:00;8.40;;;2.90;;
54745;SDS011;40640;48.130;11.356;2023-07-31T17:30:04;4.63;;;2.15;;
54745;SDS011;40640;48.130;11.356;2023-07-31T17:34:08;7.80;;;2.50;;
54745;SDS011;40640;48.130;11.356;2023-07-31T17:38:11;7.75;;;2.28;;
54745;SDS011;40640;48.130;11.356;2023-07-31T17:42:15;18.27;;;8.00;;
54745;SDS011;40640;48.130;11.356;2023-07-31T17:46:18;9.85;;;3.20;;
54745;SDS011;40640;48.130;11.356;2023-07-31T17:50:21;11.35;;;2.75;;
54745;SDS011;40640;48.130;11.356;2023-07-31T17:54:24;6.95;;;2.50;;
54745;SDS011;40640;48.130;11.356;2023-07-31T17:58:30;11.98;;;3.10;;
54745;SDS011;40640;48.130;11.356;2023-07-31T18:02:33;19.35;;;3.55;;
54745;SDS011;40640;48.130;11.356;2023-07-31T18:06:37;7.65;;;3.25;;
54745;SDS011;40640;48.130;11.356;2023-07-31T18:10:43;10.68;;;3.53;;
54745;SDS011;40640;48.130;11.356;2023-07-31T18:14:48;11.55;;;3.20;;
54745;SDS011;40640;48.130;11.356;2023-07-31T18:18:51;11.32;;;3.55;;
54745;SDS011;40640;48.130;11.356;2023-07-31T18:22:53;10.25;;;3.67;;
54745;SDS011;40640;48.130;11.356;2023-07-31T18:26:56;7.50;;;4.40;;
54745;SDS011;40640;48.130;11.356;2023-07-31T18:31:01;9.50;;;4.15;;
54745;SDS011;40640;48.130;11.356;2023-07-31T18:35:04;12.52;;;4.45;;
54745;SDS011;40640;48.130;11.356;2023-07-31T18:39:08;11.20;;;4.47;;
54745;SDS011;40640;48.130;11.356;2023-07-31T18:43:12;6.10;;;2.80;;
54745;SDS011;40640;48.130;11.356;2023-07-31T18:47:16;10.57;;;2.63;;
54745;SDS011;40640;48.130;11.356;2023-07-31T18:51:19;14.25;;;3.30;;
54745;SDS011;40640;48.130;11.356;2023-07-31T18:55:22;10.93;;;2.60;;
54745;SDS011;40640;48.130;11.356;2023-07-31T18:59:26;10.30;;;3.33;;
54745;SDS011;40640;48.130;11.356;2023-07-31T19:03:31;17.55;;;3.28;;
54745;SDS011;40640;48.130;11.356;2023-07-31T19:07:34;17.25;;;3.35;;
54745;SDS011;40640;48.130;11.356;2023-07-31T19:11:37;17.02;;;4.28;;
54745;SDS011;40640;48.130;11.356;2023-07-31T19:15:40;13.15;;;3.75;;
54745;SDS011;40640;48.130;11.356;2023-07-31T19:19:44;19.75;;;3.60;;
54745;SDS011;40640;48.130;11.356;2023-07-31T19:23:47;9.98;;;3.08;;
54745;SDS011;40640;48.130;11.356;2023-07-31T19:27:50;6.55;;;2.75;;
54745;SDS011;40640;48.130;11.356;2023-07-31T19:31:58;9.35;;;3.20;;
54745;SDS011;40640;48.130;11.356;2023-07-31T19:36:02;6.93;;;2.67;;
54745;SDS011;40640;48.130;11.356;2023-07-31T19:40:06;5.43;;;2.90;;
54745;SDS011;40640;48.130;11.356;2023-07-31T19:44:09;11.15;;;2.90;;
54745;SDS011;40640;48.130;11.356;2023-07-31T19:48:12;14.15;;;3.15;;
54745;SDS011;40640;48.130;11.356;2023-07-31T19:52:17;8.73;;;2.95;;
54745;SDS011;40640;48.130;11.356;2023-07-31T19:56:20;5.40;;;2.95;;
54745;SDS011;40640;48.130;11.356;2023-07-31T20:00:23;7.28;;;3.33;;
54745;SDS011;40640;48.130;11.356;2023-07-31T20:04:26;6.47;;;2.72;;
54745;SDS011;40640;48.130;11.356;2023-07-31T20:08:30;9.48;;;3.67;;
54745;SDS011;40640;48.130;11.356;2023-07-31T20:12:33;6.30;;;3.03;;
54745;SDS011;40640;48.130;11.356;2023-07-31T20:16:37;8.02;;;2.80;;
54745;SDS011;40640;48.130;11.356;2023-07-31T20:20:43;4.35;;;2.80;;
54745;SDS011;40640;48.130;11.356;2023-07-31T20:24:47;11.00;;;3.25;;
54745;SDS011;40640;48.130;11.356;2023-07-31T20:28:50;7.78;;;3.38;;
54745;SDS011;40640;48.130;11.356;2023-07-31T20:32:53;5.10;;;2.97;;
54745;SDS011;40640;48.130;11.356;2023-07-31T20:36:55;5.25;;;3.50;;
54745;SDS011;40640;48.130;11.356;2023-07-31T20:41:00;7.00;;;3.10;;
54745;SDS011;40640;48.130;11.356;2023-07-31T20:45:03;10.27;;;3.53;;
54745;SDS011;40640;48.130;11.356;2023-07-31T20:49:06;6.47;;;2.45;;
54745;SDS011;40640;48.130;11.356;2023-07-31T20:53:09;9.70;;;3.05;;
54745;SDS011;40640;48.130;11.356;2023-07-31T20:57:13;6.32;;;2.95;;
54745;SDS011;40640;48.130;11.356;2023-07-31T21:01:16;6.60;;;3.17;;
54745;SDS011;40640;48.130;11.356;2023-07-31T21:05:19;8.73;;;3.85;;
54745;SDS011;40640;48.130;11.356;2023-07-31T21:09:22;10.70;;;3.00;;
54745;SDS011;40640;48.130;11.356;2023-07-31T21:13:26;6.90;;;2.97;;
54745;SDS011;40640;48.130;11.356;2023-07-31T21:17:29;6.13;;;3.35;;
54745;SDS011;40640;48.130;11.356;2023-07-31T21:21:33;8.45;;;3.50;;
54745;SDS011;40640;48.130;11.356;2023-07-31T21:25:36;6.80;;;3.10;;
54745;SDS011;40640;48.130;11.356;2023-07-31T21:29:40;7.68;;;3.55;;
54745;SDS011;40640;48.130;11.356;2023-07-31T21:33:43;6.03;;;3.40;;
54745;SDS011;40640;48.130;11.356;2023-07-31T21:37:46;5.95;;;3.13;;
54745;SDS011;40640;48.130;11.356;2023-07-31T21:41:49;5.45;;;2.70;;
54745;SDS011;40640;48.130;11.356;2023-07-31T21:45:53;11.93;;;2.63;;
54745;SDS011;40640;48.130;11.356;2023-07-31T21:49:56;4.03;;;2.45;;
54745;SDS011;40640;48.130;11.356;2023-07-31T21:53:59;4.47;;;2.80;;
54745;SDS011;40640;48.130;11.356;2023-07-31T21:58:02;4.00;;;2.58;;
54745;SDS011;40640;48.130;11.356;2023-07-31T22:02:07;4.50;;;2.47;;
54745;SDS011;40640;48.130;11.356;2023-07-31T22:06:10;3.38;;;2.40;;
54745;SDS011;40640;48.130;11.356;2023-07-31T22:10:13;5.53;;;2.28;;
54745;SDS011;40640;48.130;11.356;2023-07-31T22:14:16;4.70;;;2.70;;
54745;SDS011;40640;48.130;11.356;2023-07-31T22:18:20;5.75;;;2.50;;
54745;SDS011;40640;48.130;11.356;2023-07-31T22:22:23;4.88;;;2.45;;
54745;SDS011;40640;48.130;11.356;2023-07-31T22:26:26;4.93;;;2.67;;
54745;SDS011;40640;48.130;11.356;2023-07-31T22:30:29;7.65;;;2.75;;
54745;SDS011;40640;48.130;11.356;2023-07-31T22:34:33;3.50;;;2.50;;
54745;SDS011;40640;48.130;11.356;2023-07-31T22:38:36;11.10;;;2.78;;
54745;SDS011;40640;48.130;11.356;2023-07-31T22:42:39;7.75;;;2.75;;
54745;SDS011;40640;48.130;11.356;2023-07-31T22:46:42;6.65;;;3.00;;
54745;SDS011;40640;48.130;11.356;2023-07-31T22:50:47;5.55;;;2.67;;
54745;SDS011;40640;48.130;11.356;2023-07-31T22:54:50;7.93;;;2.30;;
54745;SDS011;40640;48.130;11.356;2023-07-31T22:58:53;6.93;;;2.70;;
54745;SDS011;40640;48.130;11.356;2023-07-31T23:02:57;6.25;;;2.92;;
54745;SDS011;40640;48.130;11.356;2023-07-31T23:07:01;4.57;;;3.00;;
54745;SDS011;40640;48.130;11.356;2023-07-31T23:11:04;6.10;;;2.35;;
54745;SDS011;40640;48.130;11.356;2023-07-31T23:15:07;4.20;;;2.45;;
54745;SDS011;40640;48.130;11.356;2023-07-31T23:19:10;6.60;;;2.88;;
54745;SDS011;40640;48.130;11.356;2023-07-31T23:23:14;9.40;;;2.72;;
54745;SDS011;40640;48.130;11.356;2023-07-31T23:27:17;7.70;;;3.00;;
54745;SDS011;40640;48.130;11.356;2023-07-31T23:31:20;8.18;;;3.22;;
54745;SDS011;40640;48.130;11.356;2023-07-31T23:35:27;9.00;;;2.65;;
54745;SDS011;40640;48.130;11.356;2023-07-31T23:39:31;4.50;;;2.70;;
54745;SDS011;40640;48.130;11.356;2023-07-31T23:43:34;7.10;;;2.78;;
54745;SDS011;40640;48.130;11.356;2023-07-31T23:47:37;9.05;;;3.40;;
54745;SDS011;40640;48.130;11.356;2023-07-31T23:51:40;5.50;;;2.58;;
54745;SDS011;40640;48.130;11.356;2023-07-31T23:55:45;7.28;;;2.50;;
54745;SDS011;40640;48.130;11.356;2023-07-31T23:59:48;4.05;;;2.60;;
